Time;durP1;ratioP1;P1;durP2;ratioP2;P2;SDS_P1;SDS_P2;PMS_P1;PMS_P2;Temp;Humidity;BMP_temperature;BMP_pressure;BME280_temperature;BME280_humidity;BME280_pressure;Samples;Min_cycle;Max_cycle;Signal;HPM_P1;HPM_P2
2021/12/17 00:00:46;;;;;;;39.87;23.77;;;1.50;99.90;;;;;;4971815;28;20031;-76
2021/12/17 00:03:31;;;;;;;39.93;23.23;;;1.50;99.90;;;;;;4971192;28;20027;-76
2021/12/17 00:06:14;;;;;;;;;;;1.60;99.90;;;;;;4971497;28;20429;-76
2021/12/17 00:08:43;;;;;;;37.00;21.53;;;1.60;99.90;;;;;;4956081;28;19914;-76
2021/12/17 00:11:10;;;;;;;39.57;22.30;;;1.60;99.90;;;;;;5038442;28;20019;-76
2021/12/17 00:13:37;;;;;;;36.10;21.43;;;1.60;99.90;;;;;;4971260;28;20031;-76
2021/12/17 00:16:12;;;;;;;35.20;22.17;;;1.60;99.90;;;;;;4971271;28;20743;-76
2021/12/17 00:18:52;;;;;;;;;;;1.60;99.90;;;;;;4964420;28;20113;-76
2021/12/17 00:44:09;;;;;;;30.10;18.83;;;1.50;99.90;;;;;;4971322;28;20041;-74
2021/12/17 00:49:03;;;;;;;34.53;19.10;;;1.60;99.90;;;;;;4971671;28;20167;-74
2021/12/17 00:54:38;;;;;;;32.53;19.13;;;1.60;99.90;;;;;;4971907;28;20121;-74
2021/12/17 00:57:28;;;;;;;34.30;20.10;;;1.60;99.90;;;;;;5038171;28;20030;-74
2021/12/17 01:14:15;;;;;;;35.10;19.87;;;1.70;99.90;;;;;;4970289;28;20038;-80
2021/12/17 01:16:43;;;;;;;39.50;20.90;;;1.70;99.90;;;;;;4970114;28;20124;-80
2021/12/17 01:20:12;;;;;;;40.30;21.93;;;1.70;99.90;;;;;;4970140;28;21539;-80
2021/12/17 01:24:53;;;;;;;39.38;22.73;;;1.70;99.90;;;;;;4966231;28;20076;-80
2021/12/17 01:35:35;;;;;;;42.03;21.03;;;1.80;99.90;;;;;;4969777;28;20159;-80
2021/12/17 01:43:42;;;;;;;38.57;20.17;;;1.80;99.90;;;;;;4969521;28;20180;-80
2021/12/17 01:46:11;;;;;;;38.03;20.40;;;1.80;99.90;;;;;;4969742;28;20023;-80
2021/12/17 02:00:06;;;;;;;40.35;20.73;;;1.90;99.90;;;;;;4950379;29;20431;-80
2021/12/17 02:02:40;;;;;;;42.47;21.07;;;1.90;99.90;;;;;;4954277;28;20038;-80
2021/12/17 02:05:07;;;;;;;35.27;20.10;;;1.90;99.90;;;;;;4969771;28;20026;-80
2021/12/17 02:07:32;;;;;;;36.70;20.60;;;1.90;99.90;;;;;;4969515;28;20031;-80
2021/12/17 02:31:54;;;;;;;30.20;17.23;;;2.00;99.90;;;;;;4957411;28;20095;-80
2021/12/17 02:37:00;;;;;;;30.23;17.50;;;2.00;99.90;;;;;;4969892;28;20593;-74
2021/12/17 02:48:11;;;;;;;26.17;15.73;;;2.20;99.90;;;;;;4969792;28;20034;-74
2021/12/17 02:50:50;;;;;;;30.43;16.27;;;2.10;99.90;;;;;;4969742;28;20031;-74
2021/12/17 02:53:18;;;;;;;29.70;17.47;;;2.20;99.90;;;;;;5035876;28;20027;-74
2021/12/17 02:55:48;;;;;;;32.07;18.50;;;2.10;99.90;;;;;;4969878;28;20041;-74
2021/12/17 02:58:14;;;;;;;31.00;17.23;;;2.10;99.90;;;;;;4968730;28;20023;-74
2021/12/17 03:00:42;;;;;;;27.90;15.63;;;2.20;99.90;;;;;;4969147;28;20041;-74
2021/12/17 03:03:09;;;;;;;25.07;15.43;;;2.20;99.90;;;;;;4969529;28;20070;-74
2021/12/17 03:05:38;;;;;;;26.37;15.20;;;2.20;99.90;;;;;;4969455;28;20023;-74
2021/12/17 03:08:07;;;;;;;26.33;16.30;;;2.20;99.90;;;;;;4969838;28;20077;-74
2021/12/17 03:10:33;;;;;;;30.67;17.13;;;2.20;99.90;;;;;;4969681;28;20023;-74
2021/12/17 03:13:02;;;;;;;27.13;16.07;;;2.20;99.90;;;;;;5035774;28;20194;-74
2021/12/17 03:15:35;;;;;;;27.80;17.00;;;2.10;99.90;;;;;;4969322;28;20369;-74
2021/12/17 03:18:35;;;;;;;26.17;15.50;;;2.20;99.90;;;;;;4968898;28;20030;-74
2021/12/17 03:23:40;;;;;;;23.90;14.13;;;2.30;99.90;;;;;;4969069;28;20153;-74
2021/12/17 03:26:22;;;;;;;29.80;19.83;;;2.30;99.90;;;;;;4969486;28;20032;-74
2021/12/17 03:28:53;;;;;;;22.37;14.37;;;2.30;99.90;;;;;;4969304;28;20050;-74
2021/12/17 03:31:20;;;;;;;23.87;14.60;;;2.30;99.90;;;;;;4964501;28;20468;-77
2021/12/17 03:33:49;;;;;;;20.50;14.43;;;2.40;99.90;;;;;;4965043;28;20034;-80
2021/12/17 03:36:17;;;;;;;24.63;14.87;;;2.40;99.90;;;;;;4967872;28;20029;-76
2021/12/17 03:38:47;;;;;;;24.00;15.53;;;2.50;99.90;;;;;;4968011;28;20059;-76
2021/12/17 03:41:19;;;;;;;23.70;14.87;;;2.60;99.90;;;;;;4968402;28;20027;-76
2021/12/17 03:43:47;;;;;;;25.67;15.00;;;2.60;99.90;;;;;;4968321;28;20050;-76
2021/12/17 03:46:14;;;;;;;25.20;15.13;;;2.70;99.90;;;;;;4967666;28;20085;-76
2021/12/17 03:48:40;;;;;;;26.23;15.30;;;2.60;99.90;;;;;;4967230;28;20027;-76
2021/12/17 03:51:14;;;;;;;23.40;15.00;;;2.60;99.90;;;;;;4962460;28;20077;-79
2021/12/17 03:53:42;;;;;;;26.67;15.70;;;2.60;99.90;;;;;;4968252;28;20027;-80
2021/12/17 03:56:07;;;;;;;27.97;16.60;;;2.60;99.90;;;;;;4966737;28;20034;-80
2021/12/17 03:58:33;;;;;;;24.87;15.67;;;2.60;99.90;;;;;;4967728;28;20039;-80
2021/12/17 04:01:02;;;;;;;26.07;15.97;;;2.60;99.90;;;;;;4967845;28;20038;-77
2021/12/17 04:03:27;;;;;;;24.50;15.63;;;2.60;99.90;;;;;;4969088;28;20030;-77
2021/12/17 04:05:53;;;;;;;25.87;15.87;;;2.70;99.90;;;;;;4968822;28;20030;-77
2021/12/17 04:08:18;;;;;;;25.20;17.13;;;2.80;99.90;;;;;;5034873;28;20479;-77
2021/12/17 04:10:48;;;;;;;26.70;16.53;;;2.70;99.90;;;;;;4970527;28;20031;-77
2021/12/17 04:13:35;;;;;;;30.70;18.83;;;2.60;99.90;;;;;;5038968;28;20038;-77
2021/12/17 04:16:06;;;;;;;32.93;20.13;;;2.60;99.90;;;;;;4952688;28;20043;-77
2021/12/17 04:18:34;;;;;;;31.23;19.20;;;2.50;99.90;;;;;;4954170;28;20031;-77
2021/12/17 04:21:01;;;;;;;29.40;18.33;;;2.50;99.90;;;;;;4971431;28;20058;-77
2021/12/17 04:23:26;;;;;;;33.20;19.73;;;2.50;99.90;;;;;;4971392;28;20031;-77
2021/12/17 04:25:52;;;;;;;34.20;19.07;;;2.50;99.90;;;;;;4972065;28;20031;-77
2021/12/17 04:28:19;;;;;;;28.80;18.37;;;2.40;99.90;;;;;;4971870;28;20038;-77
2021/12/17 04:30:45;;;;;;;31.33;19.03;;;2.50;99.90;;;;;;4971863;28;20039;-77
2021/12/17 04:33:12;;;;;;;30.10;19.17;;;2.50;99.90;;;;;;4971997;28;20027;-74
2021/12/17 04:35:39;;;;;;;35.00;18.57;;;2.50;99.90;;;;;;4971881;28;20035;-74
2021/12/17 04:38:06;;;;;;;31.30;19.10;;;2.50;99.90;;;;;;5038441;28;20084;-74
2021/12/17 04:40:32;;;;;;;31.30;18.60;;;2.50;99.90;;;;;;4971681;28;20029;-74
2021/12/17 04:43:11;;;;;;;33.50;19.67;;;2.50;99.90;;;;;;4971401;28;20105;-74
2021/12/17 04:45:43;;;;;;;35.77;20.47;;;2.50;99.90;;;;;;4971550;28;20025;-74
2021/12/17 04:59:07;;;;;;;30.80;18.13;;;2.50;99.90;;;;;;4957675;28;20497;-74
2021/12/17 05:01:34;;;;;;;30.07;17.73;;;2.50;99.90;;;;;;4971473;28;20023;-74
2021/12/17 05:04:01;;;;;;;34.70;19.83;;;2.50;99.90;;;;;;4971547;28;20031;-74
2021/12/17 05:06:29;;;;;;;34.07;18.60;;;2.50;99.90;;;;;;4971776;28;20031;-74
2021/12/17 05:09:00;;;;;;;34.43;19.30;;;2.50;99.90;;;;;;5038164;28;20029;-74
2021/12/17 05:18:13;;;;;;;32.40;18.73;;;2.50;99.90;;;;;;4951877;28;20055;-74
2021/12/17 05:19:48;;;;;;;40.60;20.83;;;2.50;99.90;;;;;;4971269;28;20499;-74
2021/12/17 05:22:14;;;;;;;35.75;19.48;;;2.50;99.90;;;;;;4970021;28;20069;-74
2021/12/17 05:24:39;;;;;;;52.57;32.70;;;2.50;99.90;;;;;;4971359;28;20481;-74
2021/12/17 05:27:05;;;;;;;50.60;28.57;;;2.50;99.90;;;;;;4967453;28;20026;-80
2021/12/17 05:29:31;;;;;;;39.23;24.10;;;2.60;99.90;;;;;;4969701;28;20015;-80
2021/12/17 05:31:57;;;;;;;42.60;24.67;;;2.60;99.90;;;;;;4968885;28;20030;-81
2021/12/17 05:34:23;;;;;;;37.77;22.87;;;2.60;99.90;;;;;;4970070;28;20064;-74
2021/12/17 05:36:49;;;;;;;35.13;22.13;;;2.60;99.90;;;;;;4970327;28;20039;-74
2021/12/17 05:39:15;;;;;;;39.97;22.80;;;2.60;99.90;;;;;;4965318;28;20210;-74
2021/12/17 05:41:41;;;;;;;33.47;21.20;;;2.60;99.90;;;;;;4967609;28;20019;-74
2021/12/17 05:44:06;;;;;;;29.37;18.00;;;2.70;99.90;;;;;;4967218;28;20063;-74
2021/12/17 05:46:50;;;;;;;22.67;15.70;;;2.70;99.90;;;;;;4967508;28;20026;-74
2021/12/17 05:49:17;;;;;;;24.47;15.00;;;2.90;99.90;;;;;;4966301;28;20027;-74
2021/12/17 05:51:43;;;;;;;27.47;15.70;;;3.00;99.90;;;;;;4964110;28;20705;-74
2021/12/17 05:54:08;;;;;;;31.87;18.43;;;3.00;99.90;;;;;;4967266;28;20027;-74
2021/12/17 05:56:34;;;;;;;315.47;156.17;;;3.00;99.90;;;;;;4969317;28;20410;-74
2021/12/17 05:58:59;;;;;;;137.33;72.50;;;3.00;99.90;;;;;;4970098;28;20023;-74
2021/12/17 06:01:25;;;;;;;95.57;52.93;;;2.90;99.90;;;;;;4964777;28;20102;-74
2021/12/17 06:03:51;;;;;;;68.17;36.90;;;2.90;99.90;;;;;;4959147;28;20023;-74
2021/12/17 06:06:34;;;;;;;70.03;37.47;;;2.90;99.90;;;;;;4958430;28;20471;-74
2021/12/17 06:09:08;;;;;;;44.93;25.17;;;2.90;99.90;;;;;;4961547;28;20506;-74
2021/12/17 06:11:35;;;;;;;35.73;21.23;;;2.90;99.90;;;;;;4962213;28;20029;-74
2021/12/17 06:14:02;;;;;;;30.60;19.03;;;2.90;99.90;;;;;;5027261;28;20039;-74
2021/12/17 06:16:28;;;;;;;24.67;16.57;;;2.90;99.90;;;;;;5038212;28;20823;-74
2021/12/17 06:18:54;;;;;;;25.30;16.27;;;3.00;99.90;;;;;;5042096;28;20082;-74
2021/12/17 06:21:20;;;;;;;22.07;14.30;;;3.20;99.90;;;;;;5040064;28;20021;-77
2021/12/17 06:23:45;;;;;;;24.47;15.80;;;3.20;99.90;;;;;;5040531;28;20040;-74
2021/12/17 06:26:11;;;;;;;22.33;13.43;;;3.30;99.90;;;;;;5039797;28;20025;-74
2021/12/17 06:28:37;;;;;;;23.00;15.23;;;3.30;99.90;;;;;;5038151;28;20022;-74
2021/12/17 06:31:02;;;;;;;22.77;14.90;;;3.40;99.90;;;;;;5038912;28;20037;-74
2021/12/17 06:33:28;;;;;;;28.20;18.80;;;3.40;99.90;;;;;;5041616;28;20024;-74
2021/12/17 06:35:54;;;;;;;28.53;17.67;;;3.30;99.90;;;;;;5038942;28;20112;-74
2021/12/17 06:38:20;;;;;;;29.73;18.53;;;3.20;99.90;;;;;;5038745;28;20029;-74
2021/12/17 06:40:47;;;;;;;32.50;18.10;;;3.10;99.90;;;;;;5039177;28;20029;-74
2021/12/17 06:43:12;;;;;;;30.43;18.90;;;3.10;99.90;;;;;;5042794;28;20021;-74
2021/12/17 06:46:14;;;;;;;27.83;18.10;;;3.10;99.90;;;;;;5040128;28;20025;-74
2021/12/17 06:48:27;;;;;;;;;;;3.10;99.90;;;;;;5039199;28;20043;-74
2021/12/17 07:09:45;;;;;;;34.97;19.10;;;3.10;99.90;;;;;;5039727;28;20040;-75
2021/12/17 07:17:21;;;;;;;18.27;11.73;;;3.10;99.90;;;;;;5038143;28;20056;-76
2021/12/17 07:20:51;;;;;;;16.40;11.27;;;3.10;99.90;;;;;;5039259;28;20040;-77
2021/12/17 07:23:17;;;;;;;14.90;10.43;;;3.20;99.90;;;;;;5040669;28;20068;-76
2021/12/17 07:33:40;;;;;;;10.77;8.60;;;3.60;99.90;;;;;;5039245;28;20032;-80
2021/12/17 07:36:09;;;;;;;14.27;8.97;;;3.50;99.90;;;;;;5038575;28;20052;-80
2021/12/17 07:38:41;;;;;;;12.03;9.10;;;3.40;99.90;;;;;;5036304;28;20067;-76
2021/12/17 07:41:07;;;;;;;9.23;6.87;;;3.30;99.90;;;;;;5038648;28;20032;-77
2021/12/17 07:45:59;;;;;;;12.13;7.20;;;3.20;99.90;;;;;;5038385;28;20033;-76
2021/12/17 07:48:26;;;;;;;9.37;6.83;;;3.30;99.90;;;;;;5039751;28;20033;-76
2021/12/17 07:51:02;;;;;;;11.00;8.27;;;3.20;99.90;;;;;;5039465;28;20033;-76
2021/12/17 07:53:27;;;;;;;13.50;9.00;;;3.20;99.90;;;;;;5039725;28;20033;-76
2021/12/17 07:55:53;;;;;;;12.60;8.00;;;3.20;99.90;;;;;;5040063;28;20444;-76
2021/12/17 07:58:18;;;;;;;10.73;7.60;;;3.10;99.90;;;;;;5039658;28;20040;-76
2021/12/17 08:00:44;;;;;;;9.63;7.50;;;3.10;99.90;;;;;;5041440;28;20064;-76
2021/12/17 08:03:11;;;;;;;10.80;7.90;;;3.10;99.90;;;;;;5040623;28;20049;-76
2021/12/17 08:05:37;;;;;;;10.53;8.20;;;3.10;99.90;;;;;;5039202;28;20025;-81
2021/12/17 08:08:02;;;;;;;11.13;8.47;;;3.10;99.90;;;;;;5038355;28;20110;-81
2021/12/17 08:10:28;;;;;;;18.33;12.17;;;3.10;99.90;;;;;;5039120;28;20536;-81
2021/12/17 08:12:55;;;;;;;25.00;15.77;;;3.20;99.90;;;;;;5038605;28;20041;-81
2021/12/17 08:15:29;;;;;;;22.33;13.77;;;3.30;99.90;;;;;;5011317;28;20517;-81
2021/12/17 08:23:36;;;;;;;19.40;13.90;;;3.80;99.90;;;;;;4957046;28;20077;-78
2021/12/17 08:28:24;;;;;;;22.37;14.77;;;4.50;99.90;;;;;;4957358;28;20066;-79
2021/12/17 08:30:50;;;;;;;20.17;13.27;;;4.60;99.90;;;;;;4960678;28;20050;-79
2021/12/17 08:33:20;;;;;;;18.90;13.73;;;4.80;99.90;;;;;;4960236;28;20113;-79
2021/12/17 08:35:45;;;;;;;33.13;20.60;;;4.90;99.90;;;;;;4957415;28;20045;-79
2021/12/17 08:38:14;;;;;;;18.40;13.53;;;5.00;99.90;;;;;;5023900;28;20035;-78
2021/12/17 08:40:40;;;;;;;19.60;13.73;;;5.20;99.90;;;;;;4957805;28;20149;-78
2021/12/17 08:43:06;;;;;;;18.43;12.33;;;5.30;99.90;;;;;;4959690;28;20758;-78
2021/12/17 08:45:32;;;;;;;20.30;13.13;;;5.30;99.90;;;;;;4969080;28;20023;-80
2021/12/17 08:47:57;;;;;;;17.80;11.80;;;5.40;99.90;;;;;;4967081;28;20055;-81
2021/12/17 08:50:23;;;;;;;19.43;13.20;;;5.30;99.90;;;;;;4967327;28;20048;-81
2021/12/17 08:52:49;;;;;;;16.23;12.10;;;5.40;99.90;;;;;;5034114;28;20092;-81
2021/12/17 08:55:15;;;;;;;16.23;12.13;;;5.40;99.90;;;;;;4967203;28;20088;-81
2021/12/17 08:57:41;;;;;;;15.97;11.17;;;5.10;99.90;;;;;;4966512;28;20066;-81
2021/12/17 09:00:10;;;;;;;17.87;12.13;;;4.90;99.90;;;;;;5034512;28;20518;-81
2021/12/17 09:02:37;;;;;;;19.47;12.87;;;5.00;99.90;;;;;;4967627;28;20039;-79
2021/12/17 09:05:07;;;;;;;16.07;10.40;;;5.10;99.90;;;;;;4967664;28;20026;-79
2021/12/17 09:07:33;;;;;;;13.30;9.83;;;5.10;99.90;;;;;;4967393;28;20030;-81
2021/12/17 09:09:58;;;;;;;14.93;10.37;;;5.10;99.90;;;;;;4967091;28;20517;-78
2021/12/17 09:12:24;;;;;;;12.70;9.20;;;5.10;99.90;;;;;;4966834;28;20036;-78
2021/12/17 09:14:50;;;;;;;14.27;10.80;;;5.10;99.90;;;;;;4967380;28;20047;-79
2021/12/17 09:17:16;;;;;;;15.27;10.17;;;5.00;99.90;;;;;;4968157;28;20754;-76
2021/12/17 09:19:41;;;;;;;15.00;10.60;;;5.00;99.90;;;;;;5034024;28;20023;-76
2021/12/17 09:22:07;;;;;;;13.03;9.07;;;5.10;99.90;;;;;;4950857;28;20074;-76
2021/12/17 09:24:32;;;;;;;13.33;9.07;;;5.50;99.90;;;;;;4950310;28;20106;-77
2021/12/17 09:26:58;;;;;;;12.00;8.63;;;5.70;99.90;;;;;;4949999;28;20028;-77
2021/12/17 09:29:24;;;;;;;11.53;8.93;;;5.80;99.90;;;;;;4965493;28;20025;-76
2021/12/17 09:31:49;;;;;;;16.57;11.57;;;5.80;99.90;;;;;;4967781;28;20034;-76
2021/12/17 09:34:15;;;;;;;11.27;8.23;;;5.60;99.90;;;;;;4968558;28;20030;-76
2021/12/17 09:36:40;;;;;;;14.13;6.80;;;5.60;99.90;;;;;;5034053;28;20498;-78
2021/12/17 09:39:06;;;;;;;8.77;7.10;;;5.50;99.90;;;;;;4968009;28;20035;-78
2021/12/17 09:41:32;;;;;;;8.27;6.53;;;5.50;99.90;;;;;;5034387;28;20614;-77
2021/12/17 09:43:57;;;;;;;9.93;7.37;;;5.30;99.90;;;;;;4967775;28;20045;-78
2021/12/17 09:46:26;;;;;;;13.57;8.33;;;5.20;99.90;;;;;;4967095;28;20027;-78
2021/12/17 09:48:51;;;;;;;13.27;9.03;;;5.40;99.90;;;;;;4967139;28;20042;-78
2021/12/17 09:51:19;;;;;;;11.47;8.53;;;5.40;99.90;;;;;;4966798;28;20027;-78
2021/12/17 09:53:46;;;;;;;13.20;8.67;;;5.30;99.90;;;;;;4966468;28;20027;-78
2021/12/17 09:56:14;;;;;;;10.80;8.13;;;5.40;99.90;;;;;;4967683;28;20066;-78
2021/12/17 09:58:40;;;;;;;9.93;7.40;;;5.40;99.90;;;;;;4967830;28;20110;-70
2021/12/17 10:01:05;;;;;;;9.60;7.50;;;5.50;99.90;;;;;;4967971;28;20156;-76
2021/12/17 10:03:31;;;;;;;9.33;7.47;;;5.90;99.90;;;;;;4967889;28;20054;-76
2021/12/17 10:05:57;;;;;;;8.83;7.23;;;6.10;99.90;;;;;;4967753;28;20031;-76
2021/12/17 10:08:24;;;;;;;8.77;6.87;;;6.20;99.90;;;;;;5034411;28;20109;-76
2021/12/17 10:10:55;;;;;;;10.87;7.57;;;6.40;99.90;;;;;;4968059;28;20023;-76
2021/12/17 10:13:25;;;;;;;8.53;6.77;;;6.40;99.90;;;;;;4968237;28;20023;-76
2021/12/17 10:15:55;;;;;;;9.63;7.60;;;6.30;99.90;;;;;;4967720;28;20086;-76
2021/12/17 10:18:33;;;;;;;12.43;8.00;;;6.20;99.90;;;;;;4965749;28;20593;-76
2021/12/17 10:21:02;;;;;;;11.40;7.80;;;6.00;99.90;;;;;;4948541;29;20023;-76
2021/12/17 10:23:29;;;;;;;11.63;8.10;;;6.20;99.90;;;;;;5016320;28;20055;-79
2021/12/17 10:25:56;;;;;;;9.93;7.67;;;6.30;99.90;;;;;;4965612;28;20035;-79
2021/12/17 10:28:22;;;;;;;12.13;8.43;;;6.30;99.90;;;;;;4967445;28;20027;-80
2021/12/17 10:30:50;;;;;;;12.10;9.20;;;6.00;99.90;;;;;;4968015;28;20031;-79
2021/12/17 10:33:19;;;;;;;9.40;7.60;;;6.00;99.90;;;;;;5034142;28;20076;-79
2021/12/17 10:35:48;;;;;;;12.63;9.30;;;6.10;99.90;;;;;;5033866;28;20051;-80
2021/12/17 10:38:16;;;;;;;17.13;10.80;;;6.00;99.90;;;;;;4966950;28;20035;-80
2021/12/17 10:40:51;;;;;;;45.87;19.93;;;6.00;99.90;;;;;;4967259;28;20029;-82
2021/12/17 10:43:40;;;;;;;28.88;13.80;;;6.00;99.90;;;;;;4967237;28;20031;-80
2021/12/17 10:46:26;;;;;;;28.33;17.93;;;6.20;99.90;;;;;;4967506;28;20368;-81
2021/12/17 10:48:57;;;;;;;;;;;6.00;99.90;;;;;;4968913;28;20023;-78
2021/12/17 10:54:17;;;;;;;13.10;8.97;;;6.40;99.90;;;;;;4961284;28;20030;-80
2021/12/17 10:56:52;;;;;;;10.23;7.87;;;6.30;99.90;;;;;;4962669;28;20042;-84
2021/12/17 10:59:20;;;;;;;9.85;7.60;;;6.40;99.90;;;;;;4954754;28;20451;-76
2021/12/17 11:01:58;;;;;;;11.67;8.27;;;6.50;99.90;;;;;;5010126;28;20406;-78
2021/12/17 11:04:43;;;;;;;10.10;8.07;;;6.60;99.90;;;;;;5028881;28;20031;-76
2021/12/17 11:07:14;;;;;;;11.27;8.60;;;6.60;99.90;;;;;;4965275;28;20389;-79
2021/12/17 11:09:53;;;;;;;9.63;8.20;;;6.50;99.90;;;;;;4966917;28;20023;-78
2021/12/17 11:12:34;;;;;;;12.27;8.03;;;6.50;99.90;;;;;;4968300;28;20031;-79
2021/12/17 11:15:13;;;;;;;10.27;8.33;;;6.50;99.90;;;;;;4969638;28;20043;-80
2021/12/17 11:17:40;;;;;;;10.50;8.70;;;6.50;99.90;;;;;;4960846;28;20031;-85
2021/12/17 11:20:08;;;;;;;11.73;9.33;;;6.40;99.90;;;;;;5042257;28;20515;-85
2021/12/17 11:22:35;;;;;;;10.00;8.63;;;6.40;99.90;;;;;;5027928;28;20529;-85
2021/12/17 11:25:01;;;;;;;11.67;8.93;;;6.40;99.90;;;;;;4965399;28;20027;-85
2021/12/17 11:27:28;;;;;;;12.53;9.00;;;6.50;99.90;;;;;;4965901;28;20136;-85
2021/12/17 11:29:54;;;;;;;10.80;8.70;;;6.50;99.90;;;;;;4971395;28;20046;-85
2021/12/17 11:32:20;;;;;;;11.80;8.67;;;6.60;99.90;;;;;;4971327;28;20023;-85
2021/12/17 11:34:46;;;;;;;15.07;8.97;;;6.50;99.90;;;;;;4971282;28;20027;-85
2021/12/17 11:37:14;;;;;;;13.57;9.33;;;6.40;99.90;;;;;;5031594;28;20114;-85
2021/12/17 11:39:47;;;;;;;11.93;8.83;;;6.30;99.90;;;;;;4965839;28;20027;-85
2021/12/17 11:42:45;;;;;;;10.00;8.10;;;6.20;99.90;;;;;;4961600;28;20068;-85
2021/12/17 11:45:26;;;;;;;9.63;8.10;;;6.20;99.90;;;;;;4964225;28;20364;-86
2021/12/17 11:48:11;;;;;;;10.87;9.23;;;6.10;99.90;;;;;;4965196;28;20024;-79
2021/12/17 11:50:36;;;;;;;14.68;9.25;;;6.10;99.90;;;;;;4957231;28;20114;-79
2021/12/17 11:53:15;;;;;;;11.07;8.87;;;6.10;99.90;;;;;;4969605;28;20111;-79
2021/12/17 11:55:44;;;;;;;11.67;9.00;;;6.10;99.90;;;;;;4970128;28;20042;-79
2021/12/17 11:58:14;;;;;;;13.63;10.27;;;6.10;99.90;;;;;;4969751;28;20378;-79
2021/12/17 12:00:39;;;;;;;15.90;11.40;;;5.90;99.90;;;;;;4970063;28;20031;-79
2021/12/17 12:03:16;;;;;;;38.80;24.13;;;6.00;99.90;;;;;;4968687;28;20031;-76
2021/12/17 12:05:47;;;;;;;12.73;9.40;;;6.00;99.90;;;;;;4969544;28;20025;-76
2021/12/17 12:08:44;;;;;;;13.00;9.43;;;6.10;99.90;;;;;;4961209;28;20038;-79
2021/12/17 12:11:11;;;;;;;12.23;8.87;;;6.40;99.90;;;;;;5035651;28;20023;-79
2021/12/17 12:13:43;;;;;;;12.07;9.63;;;6.50;99.90;;;;;;4962642;28;20051;-79
2021/12/17 12:16:11;;;;;;;12.77;8.97;;;6.50;99.90;;;;;;5035471;28;20100;-79
2021/12/17 12:18:49;;;;;;;11.57;8.67;;;6.40;99.90;;;;;;4966695;28;20035;-78
2021/12/17 12:21:31;;;;;;;11.73;9.30;;;6.20;99.90;;;;;;4963852;28;20031;-78
2021/12/17 12:24:17;;;;;;;13.10;9.90;;;6.20;99.90;;;;;;4965045;28;20386;-78
2021/12/17 12:26:44;;;;;;;12.97;8.80;;;6.10;99.90;;;;;;4964750;28;20773;-78
2021/12/17 12:29:22;;;;;;;11.50;8.57;;;6.20;99.90;;;;;;4964532;28;20046;-78
2021/12/17 12:32:10;;;;;;;11.10;8.97;;;6.30;99.90;;;;;;4966910;28;20031;-78
2021/12/17 12:34:39;;;;;;;13.37;9.10;;;6.10;99.90;;;;;;4968248;28;20046;-79
2021/12/17 12:37:09;;;;;;;11.43;9.27;;;6.20;99.90;;;;;;4969804;28;20454;-79
2021/12/17 12:39:37;;;;;;;11.20;9.23;;;6.10;99.90;;;;;;4971925;28;20027;-79
2021/12/17 12:42:24;;;;;;;23.53;14.10;;;6.10;99.90;;;;;;4971875;28;20392;-79
2021/12/17 12:44:50;;;;;;;17.73;11.97;;;6.10;99.90;;;;;;4978211;28;20049;-78
2021/12/17 12:47:44;;;;;;;15.83;11.73;;;6.00;99.90;;;;;;4972408;28;20015;-78
2021/12/17 12:50:13;;;;;;;15.90;12.03;;;5.90;99.90;;;;;;4970260;28;20023;-78
2021/12/17 12:52:50;;;;;;;26.37;16.30;;;6.00;99.90;;;;;;4969853;28;20100;-78
2021/12/17 12:55:43;;;;;;;15.87;12.77;;;5.80;99.90;;;;;;4970564;28;20043;-79
2021/12/17 12:58:15;;;;;;;12.73;10.07;;;5.60;99.90;;;;;;4970773;28;20031;-78
2021/12/17 13:00:43;;;;;;;11.50;9.70;;;5.70;99.90;;;;;;5037009;28;20031;-78
2021/12/17 13:03:16;;;;;;;11.80;9.47;;;5.70;99.90;;;;;;4969886;28;20038;-79
2021/12/17 13:05:47;;;;;;;12.63;9.37;;;5.60;99.90;;;;;;4970588;28;20161;-79
2021/12/17 13:08:15;;;;;;;11.13;9.83;;;5.50;99.90;;;;;;4971007;28;20027;-79
2021/12/17 13:10:50;;;;;;;11.57;10.27;;;5.60;99.90;;;;;;4971003;28;20728;-78
2021/12/17 13:13:29;;;;;;;11.70;10.00;;;5.40;99.90;;;;;;5037627;28;20096;-78
2021/12/17 13:16:23;;;;;;;10.67;8.67;;;5.40;99.90;;;;;;4971223;28;20775;-78
2021/12/17 13:24:35;;;;;;;11.80;9.90;;;5.30;99.90;;;;;;4971283;28;20088;-79
2021/12/17 13:27:10;;;;;;;12.93;10.50;;;5.30;99.90;;;;;;4970958;28;20123;-78
2021/12/17 13:29:41;;;;;;;10.68;9.32;;;5.30;99.90;;;;;;4971019;28;20041;-78
2021/12/17 13:32:09;;;;;;;12.63;9.53;;;5.30;99.90;;;;;;4970186;28;20035;-78
2021/12/17 13:34:41;;;;;;;12.03;9.53;;;5.30;99.90;;;;;;4970311;28;20030;-78
2021/12/17 13:37:15;;;;;;;11.63;9.20;;;5.50;99.90;;;;;;4970349;28;20034;-78
2021/12/17 13:39:47;;;;;;;11.57;8.10;;;5.70;99.90;;;;;;4970712;28;20038;-78
2021/12/17 13:42:25;;;;;;;9.73;7.77;;;5.70;99.90;;;;;;4969679;28;20100;-79
2021/12/17 13:44:53;;;;;;;9.33;8.33;;;5.70;99.90;;;;;;4964884;28;20023;-78
2021/12/17 13:47:35;;;;;;;12.37;8.40;;;5.70;99.90;;;;;;4989838;28;20026;-75
2021/12/17 13:50:23;;;;;;;9.50;8.37;;;5.70;99.90;;;;;;4969205;28;20110;-76
2021/12/17 13:53:00;;;;;;;10.43;8.63;;;5.80;99.90;;;;;;4968974;28;20141;-76
2021/12/17 13:55:30;;;;;;;9.93;8.43;;;5.80;99.90;;;;;;4969398;28;20120;-75
2021/12/17 13:57:57;;;;;;;12.00;9.47;;;5.80;99.90;;;;;;5035947;28;20042;-76
2021/12/17 14:00:30;;;;;;;11.53;9.30;;;5.70;99.90;;;;;;4969353;28;20054;-76
2021/12/17 14:02:57;;;;;;;13.43;10.40;;;5.70;99.90;;;;;;5035530;28;20035;-76
2021/12/17 14:05:28;;;;;;;16.17;11.43;;;5.70;99.90;;;;;;4969318;28;20134;-76
2021/12/17 14:07:59;;;;;;;11.17;8.80;;;5.70;99.90;;;;;;4968830;28;20062;-76
2021/12/17 14:10:29;;;;;;;10.03;8.83;;;5.70;99.90;;;;;;4969293;28;20045;-76
2021/12/17 14:12:55;;;;;;;12.87;11.43;;;5.60;99.90;;;;;;5030958;28;20035;-76
2021/12/17 14:15:23;;;;;;;11.23;9.43;;;5.60;99.90;;;;;;4956205;28;20054;-76
2021/12/17 14:17:58;;;;;;;11.13;9.20;;;5.60;99.90;;;;;;4967230;28;20114;-75
2021/12/17 14:20:26;;;;;;;12.25;9.95;;;5.60;99.90;;;;;;4968455;28;20033;-75
2021/12/17 14:22:55;;;;;;;14.67;11.87;;;5.60;99.90;;;;;;4967366;28;20031;-76
2021/12/17 14:25:27;;;;;;;12.90;11.07;;;5.50;99.90;;;;;;4967561;28;20026;-75
2021/12/17 14:27:54;;;;;;;11.87;10.53;;;5.50;99.90;;;;;;4968046;28;20050;-75
2021/12/17 14:30:33;;;;;;;13.60;10.00;;;5.50;99.90;;;;;;4969180;28;20515;-75
2021/12/17 14:33:06;;;;;;;12.87;10.27;;;5.50;99.90;;;;;;4968891;28;20027;-76
2021/12/17 14:35:55;;;;;;;14.07;11.63;;;5.40;99.90;;;;;;5036181;28;20035;-76
2021/12/17 14:38:42;;;;;;;39.80;23.90;;;5.20;99.90;;;;;;4968954;28;20058;-76
2021/12/17 14:41:42;;;;;;;31.37;19.63;;;5.30;99.90;;;;;;4968923;28;20023;-76
2021/12/17 14:47:03;;;;;;;26.10;17.00;;;5.30;99.90;;;;;;4959838;28;20038;-76
2021/12/17 15:03:41;;;;;;;21.63;16.93;;;5.10;99.90;;;;;;4992157;28;20045;-77
2021/12/17 15:06:09;;;;;;;18.50;13.20;;;5.00;99.90;;;;;;4964165;28;20027;-77
2021/12/17 15:08:35;;;;;;;15.63;12.67;;;4.90;99.90;;;;;;4963170;28;20049;-77
2021/12/17 15:11:09;;;;;;;18.07;13.80;;;4.90;99.90;;;;;;4964853;28;20027;-77
2021/12/17 15:13:35;;;;;;;17.20;12.87;;;4.90;99.90;;;;;;4959876;28;20639;-77
2021/12/17 15:16:02;;;;;;;18.87;14.03;;;5.00;99.90;;;;;;4965626;28;20058;-77
2021/12/17 15:18:28;;;;;;;17.37;13.83;;;5.10;99.90;;;;;;4963798;28;20031;-77
2021/12/17 15:20:56;;;;;;;22.53;14.87;;;5.00;99.90;;;;;;4973056;28;20089;-77
2021/12/17 15:23:25;;;;;;;22.17;17.23;;;4.90;99.90;;;;;;4971259;28;20053;-77
2021/12/17 15:25:52;;;;;;;24.23;18.13;;;4.80;99.90;;;;;;5028835;28;20548;-77
2021/12/17 15:28:22;;;;;;;20.10;15.33;;;4.70;99.90;;;;;;4956965;28;20072;-77
2021/12/17 15:30:50;;;;;;;23.37;18.20;;;4.70;99.90;;;;;;4958051;28;20023;-76
2021/12/17 15:33:17;;;;;;;25.63;19.03;;;4.60;99.90;;;;;;4960740;28;20032;-76
2021/12/17 15:35:43;;;;;;;26.43;18.90;;;4.70;99.90;;;;;;4981661;28;20035;-76
2021/12/17 15:38:10;;;;;;;28.80;18.80;;;4.60;99.90;;;;;;5044439;28;20088;-76
2021/12/17 15:40:38;;;;;;;31.37;21.67;;;4.50;99.90;;;;;;4971935;28;20022;-76
2021/12/17 15:43:07;;;;;;;22.57;17.23;;;4.50;99.90;;;;;;4972182;28;20189;-76
2021/12/17 15:45:38;;;;;;;25.00;18.47;;;4.40;99.90;;;;;;4960682;28;20023;-76
2021/12/17 15:48:06;;;;;;;27.83;20.47;;;4.30;99.90;;;;;;4968189;28;20027;-81
2021/12/17 15:50:32;;;;;;;24.97;18.27;;;4.20;99.90;;;;;;5048104;28;20087;-83
2021/12/17 15:52:58;;;;;;;25.07;18.20;;;4.20;99.90;;;;;;4957697;28;20105;-75
2021/12/17 15:55:26;;;;;;;22.97;17.20;;;4.20;99.90;;;;;;4977808;28;20097;-75
2021/12/17 15:57:54;;;;;;;27.00;19.30;;;4.10;99.90;;;;;;4979548;28;20027;-75
2021/12/17 16:00:21;;;;;;;32.70;21.33;;;4.10;99.90;;;;;;4965942;28;20471;-76
2021/12/17 16:02:47;;;;;;;26.73;19.37;;;4.00;99.90;;;;;;4979633;28;20041;-78
2021/12/17 16:05:15;;;;;;;26.30;19.47;;;3.90;99.90;;;;;;4979964;28;20022;-78
2021/12/17 16:07:42;;;;;;;24.27;17.30;;;3.90;99.90;;;;;;4967480;28;20023;-78
2021/12/17 16:21:01;;;;;;;27.67;19.80;;;3.70;99.90;;;;;;4972481;28;20034;-76